createdAt,value
2018-09-22T00:00:32.906Z,65.37
2018-09-22T00:03:02.409Z,64.76
2018-09-22T00:05:32.353Z,64.58
2018-09-22T00:08:01.646Z,64.93
2018-09-22T00:10:31.086Z,63.83
2018-09-22T00:13:00.747Z,64.79
2018-09-22T00:15:30.198Z,64.57
2018-09-22T00:17:59.783Z,64.40
2018-09-22T00:20:29.287Z,64.62
2018-09-22T00:22:59.071Z,64.67
2018-09-22T00:25:28.721Z,64.51
2018-09-22T00:27:58.914Z,64.95
2018-09-22T00:30:28.485Z,64.86
2018-09-22T00:32:58.012Z,65.17
2018-09-22T00:35:27.516Z,66.12
2018-09-22T00:37:57.417Z,66.20
2018-09-22T00:40:26.937Z,66.66
2018-09-22T00:42:56.728Z,66.35
2018-09-22T00:45:26.476Z,66.76
2018-09-22T00:47:56.225Z,66.76
2018-09-22T00:50:25.947Z,66.35
2018-09-22T00:52:56.165Z,65.71
2018-09-22T00:55:26.213Z,65.97
2018-09-22T00:57:56.403Z,65.31
2018-09-22T01:00:26.060Z,64.42
2018-09-22T01:02:55.679Z,63.34
2018-09-22T01:05:25.283Z,64.01
2018-09-22T01:07:55.247Z,64.08
2018-09-22T01:10:25.081Z,63.15
2018-09-22T01:12:54.593Z,61.97
2018-09-22T01:15:24.981Z,62.15
2018-09-22T01:17:54.686Z,63.19
2018-09-22T01:20:24.310Z,63.40
2018-09-22T01:22:54.201Z,64.17
2018-09-22T01:25:23.955Z,64.72
2018-09-22T01:27:53.513Z,64.33
2018-09-22T01:30:24.149Z,64.01
2018-09-22T01:32:53.512Z,64.46
2018-09-22T01:35:23.246Z,63.58
2018-09-22T01:37:52.836Z,64.24
2018-09-22T01:40:22.594Z,64.75
2018-09-22T01:42:52.335Z,64.62
2018-09-22T01:45:22.323Z,64.74
2018-09-22T01:47:51.826Z,64.57
2018-09-22T01:50:21.450Z,65.06
2018-09-22T01:52:51.176Z,65.02
2018-09-22T01:55:21.138Z,63.20
2018-09-22T01:57:50.679Z,61.88
2018-09-22T02:00:20.288Z,61.29
2018-09-22T02:02:49.675Z,60.48
2018-09-22T02:05:19.097Z,59.99
2018-09-22T02:07:48.788Z,60.24
2018-09-22T02:10:18.143Z,59.50
2018-09-22T02:12:47.713Z,60.35
2018-09-22T02:15:17.316Z,60.32
2018-09-22T02:17:46.849Z,60.45
2018-09-22T02:20:16.187Z,59.95
2018-09-22T02:22:46.044Z,59.22
2018-09-22T02:25:15.477Z,57.49
2018-09-22T02:27:44.844Z,56.91
2018-09-22T02:30:15.944Z,57.47
2018-09-22T02:32:45.350Z,58.17
2018-09-22T02:35:14.656Z,57.62
2018-09-22T02:37:44.569Z,58.33
2018-09-22T02:40:14.068Z,57.74
2018-09-22T02:42:43.737Z,58.15
2018-09-22T02:45:13.515Z,60.14
2018-09-22T02:47:42.911Z,62.62
2018-09-22T02:50:12.323Z,62.91
2018-09-22T02:52:42.108Z,61.58
2018-09-22T02:55:11.577Z,61.13
2018-09-22T02:57:41.162Z,58.55
2018-09-22T03:00:10.988Z,57.33
2018-09-22T03:02:40.578Z,57.19
2018-09-22T03:05:10.226Z,57.54
2018-09-22T03:07:40.046Z,58.19
2018-09-22T03:10:10.538Z,59.07
2018-09-22T03:12:40.445Z,59.99
2018-09-22T03:15:10.032Z,60.28
2018-09-22T03:17:39.711Z,60.96
2018-09-22T03:20:09.416Z,59.43
2018-09-22T03:22:38.972Z,58.79
2018-09-22T03:25:08.741Z,58.52
2018-09-22T03:27:38.448Z,58.47
2018-09-22T03:30:08.121Z,57.84
2018-09-22T03:32:37.904Z,56.95
2018-09-22T03:35:07.544Z,55.93
2018-09-22T03:37:36.969Z,55.70
2018-09-22T03:40:06.745Z,54.98
2018-09-22T03:42:36.388Z,54.94
2018-09-22T03:45:05.943Z,56.26
2018-09-22T03:47:35.401Z,56.89
2018-09-22T03:50:05.096Z,56.31
2018-09-22T03:52:34.605Z,55.56
2018-09-22T03:55:04.113Z,54.64
2018-09-22T03:57:33.639Z,54.87
2018-09-22T04:00:03.167Z,55.75
2018-09-22T04:02:32.478Z,55.45
2018-09-22T04:05:01.984Z,55.48
2018-09-22T04:07:31.443Z,54.88
2018-09-22T04:10:00.859Z,55.02
2018-09-22T04:12:30.480Z,55.29
2018-09-22T04:14:59.977Z,55.35
2018-09-22T04:17:29.304Z,54.77
2018-09-22T04:19:59.060Z,54.50
2018-09-22T04:22:28.331Z,54.14
2018-09-22T04:24:57.673Z,54.85
2018-09-22T04:27:27.481Z,55.05
2018-09-22T04:29:56.912Z,55.39
2018-09-22T04:32:26.298Z,54.87
2018-09-22T04:34:56.446Z,53.21
2018-09-22T04:37:25.759Z,52.66
2018-09-22T04:39:55.149Z,51.53
2018-09-22T04:42:25.919Z,51.71
2018-09-22T04:44:55.379Z,51.79
2018-09-22T04:47:24.926Z,52.12
2018-09-22T04:49:54.971Z,52.05
2018-09-22T04:52:24.530Z,52.69
2018-09-22T04:54:54.288Z,53.79
2018-09-22T04:57:24.300Z,55.06
2018-09-22T04:59:53.669Z,57.95
2018-09-22T05:02:23.365Z,59.53
2018-09-22T05:04:53.173Z,60.56
2018-09-22T05:07:23.543Z,59.96
2018-09-22T05:09:53.011Z,59.94
2018-09-22T05:12:22.633Z,60.37
2018-09-22T05:14:51.928Z,59.73
2018-09-22T05:17:21.522Z,59.05
2018-09-22T05:19:51.024Z,58.44
2018-09-22T05:22:21.370Z,57.69
2018-09-22T05:24:51.073Z,57.06
2018-09-22T05:27:21.734Z,57.57
2018-09-22T05:29:51.406Z,58.31
2018-09-22T05:32:21.076Z,60.02
2018-09-22T05:34:50.973Z,60.85
2018-09-22T05:37:20.459Z,61.08
2018-09-22T05:39:49.883Z,61.54
2018-09-22T05:42:19.296Z,61.75
2018-09-22T05:44:48.598Z,63.72
2018-09-22T05:47:18.234Z,64.65
2018-09-22T05:49:47.812Z,63.67
2018-09-22T05:52:17.451Z,63.11
2018-09-22T05:54:46.921Z,64.28
2018-09-22T05:57:16.662Z,64.58
2018-09-22T05:59:46.187Z,64.49
2018-09-22T06:02:15.541Z,65.57
2018-09-22T06:04:45.338Z,64.88
2018-09-22T06:07:14.836Z,64.28
2018-09-22T06:09:44.392Z,63.84
2018-09-22T06:12:13.872Z,61.83
2018-09-22T06:14:43.260Z,61.58
2018-09-22T06:17:12.877Z,61.61
2018-09-22T06:19:42.422Z,61.70
2018-09-22T06:22:11.936Z,62.14
2018-09-22T06:24:41.521Z,62.23
2018-09-22T06:27:11.102Z,61.81
2018-09-22T06:29:40.387Z,61.19
2018-09-22T06:32:09.740Z,60.22
2018-09-22T06:34:39.397Z,59.72
2018-09-22T06:37:08.801Z,60.56
2018-09-22T06:39:38.521Z,60.62
2018-09-22T06:42:07.913Z,60.53
2018-09-22T06:44:37.362Z,60.09
2018-09-22T06:47:07.169Z,60.77
2018-09-22T06:49:36.711Z,62.96
2018-09-22T06:52:07.636Z,62.77
2018-09-22T06:54:37.655Z,62.77
2018-09-22T06:57:07.320Z,60.79
2018-09-22T06:59:36.833Z,60.98
2018-09-22T07:02:07.072Z,61.21
2018-09-22T07:04:36.784Z,62.77
2018-09-22T07:07:07.494Z,64.00
2018-09-22T07:09:37.008Z,66.90
2018-09-22T07:12:06.441Z,67.54
2018-09-22T07:14:36.114Z,67.29
2018-09-22T07:17:06.181Z,66.58
2018-09-22T07:19:35.749Z,64.71
2018-09-22T07:22:10.203Z,64.07
2018-09-22T07:24:40.009Z,62.85
2018-09-22T07:27:09.590Z,60.95
2018-09-22T07:29:39.132Z,61.53
2018-09-22T07:32:09.135Z,61.62
2018-09-22T07:34:38.664Z,61.38
2018-09-22T07:37:08.411Z,60.65
2018-09-22T07:39:38.030Z,61.08
2018-09-22T07:42:08.256Z,61.69
2018-09-22T07:44:37.836Z,63.25
2018-09-22T07:47:07.588Z,63.87
2018-09-22T07:49:37.105Z,63.49
2018-09-22T07:52:07.166Z,63.23
2018-09-22T07:54:36.650Z,62.87
2018-09-22T07:57:06.171Z,63.46
2018-09-22T07:59:35.876Z,62.33
2018-09-22T08:02:06.429Z,60.94
2018-09-22T08:04:35.850Z,60.93
2018-09-22T08:07:05.360Z,61.33
2018-09-22T08:09:34.964Z,61.14
2018-09-22T08:12:05.378Z,57.97
2018-09-22T08:14:34.769Z,58.39
2018-09-22T08:17:05.524Z,60.30
2018-09-22T08:19:34.952Z,61.81
2018-09-22T08:22:04.570Z,62.91
2018-09-22T08:24:34.916Z,62.83
2018-09-22T08:27:04.749Z,61.34
2018-09-22T08:29:34.492Z,58.72
2018-09-22T08:32:04.563Z,58.34
2018-09-22T08:34:34.419Z,56.89
2018-09-22T08:37:04.693Z,56.34
2018-09-22T08:39:34.855Z,57.10
2018-09-22T08:42:04.900Z,56.88
2018-09-22T08:44:34.607Z,54.67
2018-09-22T08:47:07.800Z,53.28
2018-09-22T08:49:38.236Z,53.56
2018-09-22T08:52:07.766Z,54.37
2018-09-22T08:54:37.113Z,55.64
2018-09-22T08:57:06.724Z,55.42
2018-09-22T08:59:36.807Z,56.51
2018-09-22T09:02:06.400Z,57.05
2018-09-22T09:04:36.038Z,57.58
2018-09-22T09:07:07.094Z,58.18
2018-09-22T09:09:37.340Z,59.98
2018-09-22T09:12:07.554Z,60.84
2018-09-22T09:14:36.930Z,60.34
2018-09-22T09:17:07.085Z,58.72
2018-09-22T09:19:37.416Z,58.80
2018-09-22T09:22:07.842Z,57.47
2018-09-22T09:24:38.050Z,56.65
2018-09-22T09:27:08.180Z,56.35
2018-09-22T09:29:38.545Z,56.58
2018-09-22T09:32:08.310Z,56.28
2018-09-22T09:34:37.788Z,57.42
2018-09-22T09:37:07.386Z,56.89
2018-09-22T09:39:37.039Z,56.27
2018-09-22T09:42:06.552Z,56.33
2018-09-22T09:44:36.146Z,55.19
2018-09-22T09:47:05.755Z,55.37
2018-09-22T09:49:35.050Z,55.01
2018-09-22T09:52:05.109Z,54.95
2018-09-22T09:54:35.113Z,55.59
2018-09-22T09:57:04.689Z,54.57
2018-09-22T09:59:34.354Z,54.07
2018-09-22T10:02:03.958Z,53.17
2018-09-22T10:04:34.104Z,52.93
2018-09-22T10:07:03.784Z,52.83
2018-09-22T10:09:33.539Z,53.74
2018-09-22T10:12:03.012Z,56.23
2018-09-22T10:14:32.643Z,58.25
2018-09-22T10:17:02.388Z,57.43
2018-09-22T10:19:32.237Z,56.10
2018-09-22T10:22:01.732Z,55.48
2018-09-22T10:24:31.695Z,55.86
2018-09-22T10:27:01.772Z,54.40
2018-09-22T10:29:31.301Z,54.50
2018-09-22T10:32:01.283Z,54.32
2018-09-22T10:34:31.136Z,53.77
2018-09-22T10:37:00.582Z,54.55
2018-09-22T10:39:30.394Z,54.75
2018-09-22T10:41:59.626Z,55.25
2018-09-22T10:44:29.454Z,55.70
2018-09-22T10:46:59.032Z,55.80
2018-09-22T10:49:28.478Z,56.81
2018-09-22T10:51:57.832Z,57.08
2018-09-22T10:54:27.475Z,58.40
2018-09-22T10:56:57.189Z,59.02
2018-09-22T10:59:26.955Z,58.72
2018-09-22T11:01:56.865Z,60.01
2018-09-22T11:04:26.221Z,61.17
2018-09-22T11:06:55.566Z,61.25
2018-09-22T11:09:24.956Z,60.65
2018-09-22T11:11:54.533Z,59.44
2018-09-22T11:14:24.714Z,58.67
2018-09-22T11:16:54.383Z,57.67
2018-09-22T11:19:25.148Z,57.48
2018-09-22T11:21:54.523Z,57.26
2018-09-22T11:24:25.141Z,56.93
2018-09-22T11:26:55.214Z,56.15
2018-09-22T11:29:25.776Z,56.83
2018-09-22T11:31:55.699Z,55.49
2018-09-22T11:34:25.165Z,56.27
2018-09-22T11:36:54.801Z,56.84
2018-09-22T11:39:24.702Z,58.11
2018-09-22T11:41:54.500Z,59.34
2018-09-22T11:44:24.610Z,58.82
2018-09-22T11:46:54.642Z,59.29
2018-09-22T11:49:24.592Z,58.27
2018-09-22T11:51:53.911Z,58.23
2018-09-22T11:54:23.740Z,58.50
2018-09-22T11:56:53.569Z,56.59
2018-09-22T11:59:23.346Z,54.72
2018-09-22T12:01:52.948Z,53.44
2018-09-22T12:04:22.766Z,51.98
2018-09-22T12:06:52.304Z,52.55
2018-09-22T12:09:22.304Z,53.11
2018-09-22T12:11:51.835Z,53.59
2018-09-22T12:14:21.641Z,52.67
2018-09-22T12:16:51.174Z,52.20
2018-09-22T12:19:20.518Z,52.54
2018-09-22T12:21:49.900Z,52.82
2018-09-22T12:24:19.436Z,52.96
2018-09-22T12:26:48.789Z,53.11
2018-09-22T12:29:18.557Z,52.96
2018-09-22T12:31:48.307Z,53.19
2018-09-22T12:34:17.810Z,53.70
2018-09-22T12:36:47.323Z,55.47
2018-09-22T12:39:17.336Z,56.01
2018-09-22T12:41:46.612Z,55.55
2018-09-22T12:44:16.021Z,55.59
2018-09-22T12:46:46.005Z,56.98
2018-09-22T12:49:15.658Z,57.36
2018-09-22T12:51:45.204Z,56.05
2018-09-22T12:54:14.736Z,54.76
2018-09-22T12:56:44.436Z,54.89
2018-09-22T12:59:14.109Z,55.28
2018-09-22T13:01:43.864Z,56.11
2018-09-22T13:04:13.403Z,58.49
2018-09-22T13:06:42.757Z,57.97
2018-09-22T13:09:12.791Z,57.55
2018-09-22T13:11:42.274Z,56.17
2018-09-22T13:14:11.704Z,55.16
2018-09-22T13:16:41.229Z,54.87
2018-09-22T13:19:10.641Z,54.73
2018-09-22T13:21:40.205Z,55.61
2018-09-22T13:24:09.909Z,55.43
2018-09-22T13:26:39.464Z,55.55
2018-09-22T13:29:09.160Z,54.90
2018-09-22T13:31:38.610Z,55.70
2018-09-22T13:34:08.544Z,56.04
2018-09-22T13:36:38.402Z,55.94
2018-09-22T13:39:12.228Z,56.32
2018-09-22T13:41:42.023Z,55.33
2018-09-22T13:44:12.309Z,55.68
2018-09-22T13:46:42.322Z,53.13
2018-09-22T13:49:11.842Z,53.69
2018-09-22T13:51:41.885Z,55.53
2018-09-22T13:54:11.652Z,55.62
2018-09-22T13:56:41.611Z,56.53
2018-09-22T13:59:12.781Z,58.04
2018-09-22T14:01:42.397Z,57.96
2018-09-22T14:04:12.937Z,60.17
2018-09-22T14:06:43.042Z,57.31
2018-09-22T14:09:13.387Z,56.97
2018-09-22T14:11:43.452Z,56.64
2018-09-22T14:14:13.453Z,56.83
2018-09-22T14:16:43.082Z,57.03
2018-09-22T14:19:13.635Z,58.38
2018-09-22T14:21:44.510Z,58.60
2018-09-22T14:24:15.290Z,58.41
2018-09-22T14:26:44.897Z,59.26
2018-09-22T14:29:15.090Z,59.98
2018-09-22T14:31:44.840Z,59.91
2018-09-22T14:34:14.600Z,57.98
2018-09-22T14:36:44.351Z,55.62
2018-09-22T14:39:14.827Z,53.80
2018-09-22T14:41:44.485Z,54.36
2018-09-22T14:44:14.731Z,53.88
2018-09-22T14:46:45.439Z,54.60
2018-09-22T14:49:15.401Z,55.02
2018-09-22T14:51:45.525Z,54.93
2018-09-22T14:54:15.384Z,55.60
2018-09-22T14:56:45.010Z,54.93
2018-09-22T14:59:14.536Z,54.21
2018-09-22T15:01:44.596Z,54.35
2018-09-22T15:04:14.196Z,53.85
2018-09-22T15:06:44.194Z,54.44
2018-09-22T15:09:13.724Z,54.60
2018-09-22T15:11:44.399Z,55.80
2018-09-22T15:14:14.192Z,55.96
2018-09-22T15:16:44.084Z,60.50
2018-09-22T15:19:13.429Z,63.79
2018-09-22T15:21:43.024Z,65.79
2018-09-22T15:24:13.147Z,65.12
2018-09-22T15:26:42.492Z,65.73
2018-09-22T15:29:11.976Z,64.96
2018-09-22T15:31:41.767Z,65.74
2018-09-22T15:34:11.259Z,67.11
2018-09-22T15:36:40.684Z,66.12
2018-09-22T15:39:10.596Z,68.05
2018-09-22T15:41:41.457Z,66.71
2018-09-22T15:44:11.400Z,67.40
2018-09-22T15:46:41.622Z,67.74
2018-09-22T15:49:12.162Z,68.43
2018-09-22T15:51:41.889Z,68.54
2018-09-22T15:54:12.873Z,68.83
2018-09-22T15:56:42.713Z,69.01
2018-09-22T15:59:12.676Z,69.45
2018-09-22T16:01:42.888Z,70.13
2018-09-22T16:04:12.262Z,70.31
2018-09-22T16:06:41.937Z,69.81
2018-09-22T16:09:12.073Z,69.97
2018-09-22T16:11:41.751Z,69.20
2018-09-22T16:14:11.395Z,69.85
2018-09-22T16:16:41.112Z,69.52
2018-09-22T16:19:11.253Z,69.64
2018-09-22T16:21:40.833Z,69.30
2018-09-22T16:24:10.446Z,69.78
2018-09-22T16:26:40.333Z,69.81
2018-09-22T16:29:09.968Z,69.57
2018-09-22T16:31:39.668Z,70.06
2018-09-22T16:34:10.138Z,70.65
2018-09-22T16:36:40.030Z,71.54
2018-09-22T16:39:10.788Z,71.62
2018-09-22T16:41:40.838Z,71.83
2018-09-22T16:44:10.772Z,72.20
2018-09-22T16:46:40.534Z,72.25
2018-09-22T16:49:10.501Z,72.39
2018-09-22T16:51:40.501Z,72.87
2018-09-22T16:54:10.149Z,73.01
2018-09-22T16:56:40.061Z,72.89
2018-09-22T16:59:09.672Z,72.47
2018-09-22T17:01:40.592Z,71.92
2018-09-22T17:04:11.140Z,71.76
2018-09-22T17:06:40.926Z,72.07
2018-09-22T17:09:11.132Z,71.75
2018-09-22T17:11:41.294Z,71.33
2018-09-22T17:14:11.641Z,70.85
2018-09-22T17:16:41.953Z,70.69
2018-09-22T17:19:11.636Z,71.13
2018-09-22T17:21:41.592Z,70.92
2018-09-22T17:24:11.600Z,71.40
2018-09-22T17:26:42.010Z,70.57
2018-09-22T17:29:11.540Z,70.68
2018-09-22T17:31:41.222Z,70.30
2018-09-22T17:34:10.885Z,71.04
2018-09-22T17:36:40.524Z,70.98
2018-09-22T17:39:10.908Z,70.86
2018-09-22T17:41:40.700Z,71.03
2018-09-22T17:44:10.297Z,71.01
2018-09-22T17:46:40.120Z,70.51
2018-09-22T17:49:09.882Z,70.50
2018-09-22T17:51:39.486Z,70.91
2018-09-22T17:54:09.050Z,71.08
2018-09-22T17:56:38.782Z,71.10
2018-09-22T17:59:08.392Z,71.56
2018-09-22T18:01:37.821Z,71.33
2018-09-22T18:04:07.620Z,72.31
2018-09-22T18:06:37.220Z,72.42
2018-09-22T18:09:08.894Z,72.42
2018-09-22T18:11:39.349Z,72.09
2018-09-22T18:14:09.048Z,72.32
2018-09-22T18:16:38.519Z,71.96
2018-09-22T18:19:07.857Z,72.38
2018-09-22T18:21:38.016Z,72.03
2018-09-22T18:24:07.503Z,72.28
2018-09-22T18:26:37.245Z,71.87
2018-09-22T18:29:06.934Z,71.89
2018-09-22T18:31:36.872Z,72.96
2018-09-22T18:34:07.695Z,74.33
2018-09-22T18:36:37.849Z,73.79
2018-09-22T18:39:08.947Z,73.94
2018-09-22T18:41:39.159Z,75.10
2018-09-22T18:44:09.105Z,74.63
2018-09-22T18:46:39.094Z,74.50
2018-09-22T18:49:09.442Z,75.00
2018-09-22T18:51:39.402Z,74.40
2018-09-22T18:54:10.660Z,73.62
2018-09-22T18:56:43.931Z,73.78
2018-09-22T18:59:14.639Z,73.34
2018-09-22T19:01:45.555Z,72.96
2018-09-22T19:04:15.678Z,72.97
2018-09-22T19:06:46.544Z,72.78
2018-09-22T19:09:38.468Z,72.27
2018-09-22T19:12:21.799Z,72.16
2018-09-22T19:14:57.820Z,71.04
2018-09-22T19:17:55.137Z,69.00
2018-09-22T19:20:30.252Z,69.35
2018-09-22T19:23:03.711Z,70.10
2018-09-22T19:25:50.135Z,69.90
2018-09-22T19:28:40.872Z,70.37
2018-09-22T19:31:14.662Z,70.81
2018-09-22T19:33:47.528Z,70.98
2018-09-22T19:36:24.265Z,71.40
2018-09-22T19:38:59.319Z,70.51
2018-09-22T19:41:36.116Z,70.32
2018-09-22T19:45:14.146Z,70.11
2018-09-22T19:47:52.456Z,68.99
2018-09-22T19:50:27.597Z,67.74
2018-09-22T19:52:57.290Z,67.86
2018-09-22T19:55:27.729Z,67.92
2018-09-22T19:57:57.329Z,67.02
2018-09-22T20:00:26.894Z,67.24
2018-09-22T20:02:56.750Z,67.35
2018-09-22T20:05:26.251Z,67.18
2018-09-22T20:07:56.230Z,66.66
2018-09-22T20:10:25.819Z,66.30
2018-09-22T20:12:55.686Z,66.61
2018-09-22T20:15:25.411Z,66.40
2018-09-22T20:17:55.634Z,65.79
2018-09-22T20:20:25.040Z,65.18
2018-09-22T20:22:54.794Z,65.11
2018-09-22T20:25:24.507Z,65.01
2018-09-22T20:27:54.500Z,65.45
2018-09-22T20:30:25.025Z,64.59
2018-09-22T20:32:54.609Z,65.13
2018-09-22T20:35:24.402Z,64.28
2018-09-22T20:37:54.228Z,64.68
2018-09-22T20:40:24.334Z,64.60
2018-09-22T20:42:54.614Z,64.24
2018-09-22T20:45:24.489Z,64.20
2018-09-22T20:47:54.219Z,64.53
2018-09-22T20:50:23.986Z,64.14
2018-09-22T20:52:53.791Z,63.83
2018-09-22T20:55:23.964Z,64.16
2018-09-22T20:57:53.856Z,63.85
2018-09-22T21:00:23.962Z,63.67
2018-09-22T21:02:53.659Z,64.13
2018-09-22T21:05:23.776Z,63.62
2018-09-22T21:07:55.031Z,62.96
2018-09-22T21:10:25.253Z,63.46
2018-09-22T21:12:55.915Z,63.88
2018-09-22T21:15:25.810Z,64.12
2018-09-22T21:17:55.827Z,63.93
2018-09-22T21:20:25.808Z,63.87
2018-09-22T21:22:55.554Z,64.14
2018-09-22T21:25:25.539Z,63.98
2018-09-22T21:27:55.414Z,63.54
2018-09-22T21:30:24.791Z,63.43
2018-09-22T21:32:54.416Z,63.77
2018-09-22T21:35:25.092Z,64.09
2018-09-22T21:37:54.925Z,64.01
2018-09-22T21:40:25.666Z,63.61
2018-09-22T21:42:55.045Z,63.59
2018-09-22T21:45:25.624Z,62.86
2018-09-22T21:47:55.401Z,63.01
2018-09-22T21:50:24.982Z,62.70
2018-09-22T21:52:54.583Z,63.08
2018-09-22T21:55:24.713Z,63.04
2018-09-22T21:57:53.956Z,63.31
2018-09-22T22:00:23.570Z,63.18
2018-09-22T22:02:53.088Z,62.91
2018-09-22T22:05:23.466Z,63.23
2018-09-22T22:07:53.083Z,62.82
2018-09-22T22:10:22.611Z,63.28
2018-09-22T22:12:52.248Z,62.87
2018-09-22T22:15:22.578Z,62.32
2018-09-22T22:17:52.460Z,61.80
2018-09-22T22:20:22.374Z,61.65
2018-09-22T22:22:51.818Z,62.27
2018-09-22T22:25:21.455Z,62.38
2018-09-22T22:27:51.048Z,62.48
2018-09-22T22:30:20.445Z,62.30
2018-09-22T22:32:49.926Z,62.76
2018-09-22T22:35:19.512Z,62.61
2018-09-22T22:37:48.729Z,63.20
2018-09-22T22:40:18.069Z,62.76
2018-09-22T22:42:47.473Z,61.75
2018-09-22T22:45:16.993Z,60.84
2018-09-22T22:47:46.478Z,61.29
2018-09-22T22:50:16.277Z,61.51
2018-09-22T22:52:45.862Z,60.79
2018-09-22T22:55:16.456Z,61.02
2018-09-22T22:57:45.611Z,60.65
2018-09-22T23:00:15.116Z,60.57
2018-09-22T23:02:44.633Z,60.17
2018-09-22T23:05:14.330Z,59.83
2018-09-22T23:07:43.633Z,60.49
2018-09-22T23:10:13.063Z,60.77
2018-09-22T23:12:42.581Z,61.37
2018-09-22T23:15:12.135Z,61.35
2018-09-22T23:17:42.499Z,61.07
2018-09-22T23:20:12.492Z,61.08
2018-09-22T23:22:42.464Z,61.00
2018-09-22T23:25:11.806Z,61.13
2018-09-22T23:27:41.494Z,61.04
2018-09-22T23:30:11.244Z,60.91
2018-09-22T23:32:40.920Z,60.89
2018-09-22T23:35:10.392Z,61.01
2018-09-22T23:37:40.087Z,60.53
2018-09-22T23:40:09.425Z,59.87
2018-09-22T23:42:38.902Z,60.24
2018-09-22T23:45:08.694Z,59.52
2018-09-22T23:47:38.287Z,59.15
2018-09-22T23:50:07.908Z,59.96
2018-09-22T23:52:37.659Z,60.42
2018-09-22T23:55:07.282Z,61.73
2018-09-22T23:57:36.743Z,61.37
